sensor_id;sensor_type;location;lat;lon;timestamp;temperature;humidity
61374;DHT22;47242;48.158;-1.586;2023-05-24T04:30:19;12.20;56.80
61374;DHT22;47242;48.158;-1.586;2023-05-24T04:32:45;12.30;56.60
61374;DHT22;47242;48.158;-1.586;2023-05-24T04:35:11;12.30;56.60
61374;DHT22;47242;48.158;-1.586;2023-05-24T04:37:37;12.20;56.80
61374;DHT22;47242;48.158;-1.586;2023-05-24T04:40:05;12.20;56.60
61374;DHT22;47242;48.158;-1.586;2023-05-24T04:42:32;12.20;56.60
61374;DHT22;47242;48.158;-1.586;2023-05-24T04:44:58;12.20;56.80
61374;DHT22;47242;48.158;-1.586;2023-05-24T04:47:24;12.20;56.80
61374;DHT22;47242;48.158;-1.586;2023-05-24T04:49:50;12.20;56.80
61374;DHT22;47242;48.158;-1.586;2023-05-24T04:52:17;12.20;56.70
61374;DHT22;47242;48.158;-1.586;2023-05-24T04:54:43;12.30;56.70
61374;DHT22;47242;48.158;-1.586;2023-05-24T04:57:09;12.20;56.60
61374;DHT22;47242;48.158;-1.586;2023-05-24T04:59:34;12.20;56.70
61374;DHT22;47242;48.158;-1.586;2023-05-24T05:02:00;12.30;56.50
61374;DHT22;47242;48.158;-1.586;2023-05-24T05:04:26;12.30;56.50
61374;DHT22;47242;48.158;-1.586;2023-05-24T05:06:51;12.30;56.60
61374;DHT22;47242;48.158;-1.586;2023-05-24T05:09:17;12.30;56.50
61374;DHT22;47242;48.158;-1.586;2023-05-24T05:11:45;12.30;56.60
61374;DHT22;47242;48.158;-1.586;2023-05-24T05:14:10;12.30;56.50
61374;DHT22;47242;48.158;-1.586;2023-05-24T05:16:37;12.30;56.50
61374;DHT22;47242;48.158;-1.586;2023-05-24T05:19:03;12.40;56.50
61374;DHT22;47242;48.158;-1.586;2023-05-24T05:21:30;12.40;56.70
61374;DHT22;47242;48.158;-1.586;2023-05-24T05:23:59;12.50;56.30
61374;DHT22;47242;48.158;-1.586;2023-05-24T05:26:28;12.50;56.20
61374;DHT22;47242;48.158;-1.586;2023-05-24T05:28:55;12.60;56.20
61374;DHT22;47242;48.158;-1.586;2023-05-24T05:31:21;12.60;56.00
61374;DHT22;47242;48.158;-1.586;2023-05-24T05:33:47;12.60;55.60
61374;DHT22;47242;48.158;-1.586;2023-05-24T05:36:13;12.70;55.60
61374;DHT22;47242;48.158;-1.586;2023-05-24T05:38:38;12.70;55.50
61374;DHT22;47242;48.158;-1.586;2023-05-24T05:41:04;12.80;55.10
61374;DHT22;47242;48.158;-1.586;2023-05-24T05:43:30;12.80;55.00
61374;DHT22;47242;48.158;-1.586;2023-05-24T05:45:56;12.80;54.90
61374;DHT22;47242;48.158;-1.586;2023-05-24T05:48:22;12.90;54.50
61374;DHT22;47242;48.158;-1.586;2023-05-24T05:50:47;12.90;54.30
61374;DHT22;47242;48.158;-1.586;2023-05-24T05:53:15;13.00;54.30
61374;DHT22;47242;48.158;-1.586;2023-05-24T05:55:41;13.00;53.90
61374;DHT22;47242;48.158;-1.586;2023-05-24T05:58:06;13.00;53.50
61374;DHT22;47242;48.158;-1.586;2023-05-24T06:00:32;13.20;53.40
61374;DHT22;47242;48.158;-1.586;2023-05-24T06:02:57;13.20;53.40
61374;DHT22;47242;48.158;-1.586;2023-05-24T06:05:23;13.30;53.20
61374;DHT22;47242;48.158;-1.586;2023-05-24T06:07:49;13.30;53.30
61374;DHT22;47242;48.158;-1.586;2023-05-24T06:10:14;13.30;53.10
61374;DHT22;47242;48.158;-1.586;2023-05-24T06:12:40;13.50;52.90
61374;DHT22;47242;48.158;-1.586;2023-05-24T06:15:07;13.50;52.70
61374;DHT22;47242;48.158;-1.586;2023-05-24T06:17:33;13.60;52.70
61374;DHT22;47242;48.158;-1.586;2023-05-24T06:19:59;13.70;52.60
61374;DHT22;47242;48.158;-1.586;2023-05-24T06:22:25;13.70;52.40
61374;DHT22;47242;48.158;-1.586;2023-05-24T06:24:54;13.70;52.30
61374;DHT22;47242;48.158;-1.586;2023-05-24T06:27:20;13.80;51.60
61374;DHT22;47242;48.158;-1.586;2023-05-24T06:29:46;13.90;51.40
61374;DHT22;47242;48.158;-1.586;2023-05-24T06:32:11;14.00;51.70
61374;DHT22;47242;48.158;-1.586;2023-05-24T06:34:37;14.00;51.40
61374;DHT22;47242;48.158;-1.586;2023-05-24T06:37:03;14.00;51.20
61374;DHT22;47242;48.158;-1.586;2023-05-24T06:39:28;14.10;50.70
61374;DHT22;47242;48.158;-1.586;2023-05-24T06:41:54;14.20;50.40
61374;DHT22;47242;48.158;-1.586;2023-05-24T06:44:20;14.30;50.80
61374;DHT22;47242;48.158;-1.586;2023-05-24T06:46:47;14.30;50.40
61374;DHT22;47242;48.158;-1.586;2023-05-24T06:49:13;14.40;48.70
61374;DHT22;47242;48.158;-1.586;2023-05-24T06:51:38;14.50;49.40
61374;DHT22;47242;48.158;-1.586;2023-05-24T06:54:04;14.60;48.50
61374;DHT22;47242;48.158;-1.586;2023-05-24T06:56:31;14.60;47.80
61374;DHT22;47242;48.158;-1.586;2023-05-24T06:58:58;14.70;47.50
61374;DHT22;47242;48.158;-1.586;2023-05-24T07:01:23;14.80;47.20
61374;DHT22;47242;48.158;-1.586;2023-05-24T07:03:49;14.90;46.30
61374;DHT22;47242;48.158;-1.586;2023-05-24T07:06:15;15.00;45.60
61374;DHT22;47242;48.158;-1.586;2023-05-24T07:08:41;15.10;45.60
61374;DHT22;47242;48.158;-1.586;2023-05-24T07:11:07;15.20;45.30
61374;DHT22;47242;48.158;-1.586;2023-05-24T07:13:33;15.30;45.10
61374;DHT22;47242;48.158;-1.586;2023-05-24T07:15:58;15.50;44.80
61374;DHT22;47242;48.158;-1.586;2023-05-24T07:18:24;15.60;44.20
61374;DHT22;47242;48.158;-1.586;2023-05-24T07:20:50;15.90;42.90
61374;DHT22;47242;48.158;-1.586;2023-05-24T07:23:16;16.30;42.90
61374;DHT22;47242;48.158;-1.586;2023-05-24T07:25:41;17.10;42.20
61374;DHT22;47242;48.158;-1.586;2023-05-24T07:28:07;18.30;40.40
61374;DHT22;47242;48.158;-1.586;2023-05-24T07:30:33;19.60;38.20
61374;DHT22;47242;48.158;-1.586;2023-05-24T07:32:59;20.80;36.40
61374;DHT22;47242;48.158;-1.586;2023-05-24T07:35:26;21.60;34.70
61374;DHT22;47242;48.158;-1.586;2023-05-24T07:37:53;22.50;33.30
61374;DHT22;47242;48.158;-1.586;2023-05-24T07:40:19;23.30;32.10
61374;DHT22;47242;48.158;-1.586;2023-05-24T07:42:45;23.90;30.50
61374;DHT22;47242;48.158;-1.586;2023-05-24T07:45:11;24.50;30.20
61374;DHT22;47242;48.158;-1.586;2023-05-24T07:47:38;24.90;30.30
61374;DHT22;47242;48.158;-1.586;2023-05-24T07:50:04;25.10;28.80
61374;DHT22;47242;48.158;-1.586;2023-05-24T07:52:30;25.30;28.50
61374;DHT22;47242;48.158;-1.586;2023-05-24T07:54:55;25.70;28.10
61374;DHT22;47242;48.158;-1.586;2023-05-24T07:57:21;26.30;28.00
61374;DHT22;47242;48.158;-1.586;2023-05-24T07:59:47;26.60;27.30
61374;DHT22;47242;48.158;-1.586;2023-05-24T08:02:13;26.70;27.00
61374;DHT22;47242;48.158;-1.586;2023-05-24T08:04:39;26.80;26.70
61374;DHT22;47242;48.158;-1.586;2023-05-24T08:07:05;26.90;27.00
61374;DHT22;47242;48.158;-1.586;2023-05-24T08:09:32;27.00;26.50
61374;DHT22;47242;48.158;-1.586;2023-05-24T08:12:05;27.60;26.00
61374;DHT22;47242;48.158;-1.586;2023-05-24T08:14:31;28.50;25.60
61374;DHT22;47242;48.158;-1.586;2023-05-24T08:16:57;29.20;25.00
61374;DHT22;47242;48.158;-1.586;2023-05-24T08:19:25;29.90;23.80
61374;DHT22;47242;48.158;-1.586;2023-05-24T08:21:52;30.60;23.30
61374;DHT22;47242;48.158;-1.586;2023-05-24T08:24:19;31.10;23.10
61374;DHT22;47242;48.158;-1.586;2023-05-24T08:26:45;31.70;22.50
61374;DHT22;47242;48.158;-1.586;2023-05-24T08:29:11;31.90;22.30
61374;DHT22;47242;48.158;-1.586;2023-05-24T08:31:36;32.20;21.70
61374;DHT22;47242;48.158;-1.586;2023-05-24T08:34:03;32.30;21.90
61374;DHT22;47242;48.158;-1.586;2023-05-24T08:36:28;32.20;22.20
61374;DHT22;47242;48.158;-1.586;2023-05-24T08:38:54;32.20;21.70
61374;DHT22;47242;48.158;-1.586;2023-05-24T08:41:20;32.20;20.60
61374;DHT22;47242;48.158;-1.586;2023-05-24T08:43:47;32.20;20.80
61374;DHT22;47242;48.158;-1.586;2023-05-24T08:46:15;32.30;20.90
61374;DHT22;47242;48.158;-1.586;2023-05-24T08:48:44;32.00;20.60
61374;DHT22;47242;48.158;-1.586;2023-05-24T08:51:15;31.80;20.90
61374;DHT22;47242;48.158;-1.586;2023-05-24T08:53:43;31.90;21.40
61374;DHT22;47242;48.158;-1.586;2023-05-24T08:56:15;32.30;20.60
61374;DHT22;47242;48.158;-1.586;2023-05-24T08:58:41;32.60;20.20
61374;DHT22;47242;48.158;-1.586;2023-05-24T09:01:08;32.90;19.90
61374;DHT22;47242;48.158;-1.586;2023-05-24T09:03:35;33.20;19.80
61374;DHT22;47242;48.158;-1.586;2023-05-24T09:06:02;33.40;18.70
61374;DHT22;47242;48.158;-1.586;2023-05-24T09:08:29;33.70;18.70
61374;DHT22;47242;48.158;-1.586;2023-05-24T09:10:57;34.00;18.40
61374;DHT22;47242;48.158;-1.586;2023-05-24T09:13:24;34.00;17.00
61374;DHT22;47242;48.158;-1.586;2023-05-24T09:15:50;34.00;17.20
61374;DHT22;47242;48.158;-1.586;2023-05-24T09:18:16;33.90;16.80
61374;DHT22;47242;48.158;-1.586;2023-05-24T09:20:41;33.80;17.00
61374;DHT22;47242;48.158;-1.586;2023-05-24T09:23:07;33.80;16.90
61374;DHT22;47242;48.158;-1.586;2023-05-24T09:25:34;33.70;17.00
61374;DHT22;47242;48.158;-1.586;2023-05-24T09:28:05;33.80;17.10
61374;DHT22;47242;48.158;-1.586;2023-05-24T09:30:31;34.00;17.90
61374;DHT22;47242;48.158;-1.586;2023-05-24T09:32:59;34.20;17.60
61374;DHT22;47242;48.158;-1.586;2023-05-24T09:35:26;34.20;16.60
61374;DHT22;47242;48.158;-1.586;2023-05-24T09:37:56;34.40;16.70
61374;DHT22;47242;48.158;-1.586;2023-05-24T09:40:24;34.30;17.20
61374;DHT22;47242;48.158;-1.586;2023-05-24T09:43:02;34.00;16.80
61374;DHT22;47242;48.158;-1.586;2023-05-24T09:45:27;33.90;16.80
61374;DHT22;47242;48.158;-1.586;2023-05-24T09:47:53;34.10;16.80
61374;DHT22;47242;48.158;-1.586;2023-05-24T09:50:19;34.30;17.30
61374;DHT22;47242;48.158;-1.586;2023-05-24T09:52:45;34.40;17.20
61374;DHT22;47242;48.158;-1.586;2023-05-24T09:55:20;34.60;17.10
61374;DHT22;47242;48.158;-1.586;2023-05-24T09:58:02;34.60;15.70
61374;DHT22;47242;48.158;-1.586;2023-05-24T10:00:28;34.80;16.70
61374;DHT22;47242;48.158;-1.586;2023-05-24T10:03:07;34.80;16.40
61374;DHT22;47242;48.158;-1.586;2023-05-24T10:05:33;34.80;16.10
61374;DHT22;47242;48.158;-1.586;2023-05-24T10:08:00;34.30;15.30
61374;DHT22;47242;48.158;-1.586;2023-05-24T10:10:27;34.00;16.10
61374;DHT22;47242;48.158;-1.586;2023-05-24T10:12:55;33.90;16.00
61374;DHT22;47242;48.158;-1.586;2023-05-24T10:15:21;33.30;16.90
61374;DHT22;47242;48.158;-1.586;2023-05-24T10:17:47;33.30;16.60
61374;DHT22;47242;48.158;-1.586;2023-05-24T10:20:12;33.20;17.40
61374;DHT22;47242;48.158;-1.586;2023-05-24T10:22:42;32.80;16.70
61374;DHT22;47242;48.158;-1.586;2023-05-24T10:25:14;32.60;17.70
61374;DHT22;47242;48.158;-1.586;2023-05-24T10:27:43;32.40;18.20
61374;DHT22;47242;48.158;-1.586;2023-05-24T10:30:33;31.90;17.30
61374;DHT22;47242;48.158;-1.586;2023-05-24T10:33:00;31.60;18.00
61374;DHT22;47242;48.158;-1.586;2023-05-24T10:35:28;31.10;17.90
61374;DHT22;47242;48.158;-1.586;2023-05-24T10:37:53;30.40;18.00
61374;DHT22;47242;48.158;-1.586;2023-05-24T10:40:21;29.70;18.70
61374;DHT22;47242;48.158;-1.586;2023-05-24T10:42:49;29.10;19.00
61374;DHT22;47242;48.158;-1.586;2023-05-24T10:47:47;28.30;20.70
61374;DHT22;47242;48.158;-1.586;2023-05-24T10:50:17;27.90;20.60
61374;DHT22;47242;48.158;-1.586;2023-05-24T10:52:43;27.50;20.40
61374;DHT22;47242;48.158;-1.586;2023-05-24T10:55:10;27.20;21.10
61374;DHT22;47242;48.158;-1.586;2023-05-24T10:57:37;27.00;21.80
61374;DHT22;47242;48.158;-1.586;2023-05-24T11:03:05;26.50;22.00
61374;DHT22;47242;48.158;-1.586;2023-05-24T11:08:10;26.10;21.20
61374;DHT22;47242;48.158;-1.586;2023-05-24T11:10:36;25.90;22.10
61374;DHT22;47242;48.158;-1.586;2023-05-24T11:13:03;25.80;22.80
61374;DHT22;47242;48.158;-1.586;2023-05-24T11:15:31;25.70;23.10
61374;DHT22;47242;48.158;-1.586;2023-05-24T11:20:39;25.50;23.20
61374;DHT22;47242;48.158;-1.586;2023-05-24T11:23:07;25.50;23.10
61374;DHT22;47242;48.158;-1.586;2023-05-24T11:25:39;25.40;23.70
61374;DHT22;47242;48.158;-1.586;2023-05-24T11:28:11;25.30;24.20
61374;DHT22;47242;48.158;-1.586;2023-05-24T11:30:46;25.30;23.90
61374;DHT22;47242;48.158;-1.586;2023-05-24T11:35:43;25.20;23.50
61374;DHT22;47242;48.158;-1.586;2023-05-24T11:38:10;25.10;23.40
61374;DHT22;47242;48.158;-1.586;2023-05-24T11:40:42;25.00;23.10
61374;DHT22;47242;48.158;-1.586;2023-05-24T11:43:13;24.90;24.30
61374;DHT22;47242;48.158;-1.586;2023-05-24T11:45:44;24.80;23.00
61374;DHT22;47242;48.158;-1.586;2023-05-24T11:48:10;24.50;23.30
61374;DHT22;47242;48.158;-1.586;2023-05-24T11:50:44;24.40;23.80
61374;DHT22;47242;48.158;-1.586;2023-05-24T11:53:11;24.50;23.90
61374;DHT22;47242;48.158;-1.586;2023-05-24T11:55:38;24.60;24.70
61374;DHT22;47242;48.158;-1.586;2023-05-24T11:58:18;24.60;26.50
61374;DHT22;47242;48.158;-1.586;2023-05-24T12:00:46;24.60;24.50
61374;DHT22;47242;48.158;-1.586;2023-05-24T12:03:12;24.60;24.90
61374;DHT22;47242;48.158;-1.586;2023-05-24T12:05:38;24.60;24.20
61374;DHT22;47242;48.158;-1.586;2023-05-24T12:08:05;24.60;24.40
61374;DHT22;47242;48.158;-1.586;2023-05-24T12:10:36;24.50;24.70
61374;DHT22;47242;48.158;-1.586;2023-05-24T12:13:06;24.60;24.90
61374;DHT22;47242;48.158;-1.586;2023-05-24T12:15:42;24.50;25.00
61374;DHT22;47242;48.158;-1.586;2023-05-24T12:18:20;24.50;24.30
61374;DHT22;47242;48.158;-1.586;2023-05-24T12:20:50;24.40;24.50
61374;DHT22;47242;48.158;-1.586;2023-05-24T12:23:18;24.40;24.20
61374;DHT22;47242;48.158;-1.586;2023-05-24T12:25:44;24.30;24.70
61374;DHT22;47242;48.158;-1.586;2023-05-24T12:28:11;24.30;24.40
61374;DHT22;47242;48.158;-1.586;2023-05-24T12:30:37;24.30;24.80
61374;DHT22;47242;48.158;-1.586;2023-05-24T12:33:10;24.30;25.00
61374;DHT22;47242;48.158;-1.586;2023-05-24T12:35:40;24.30;25.00
61374;DHT22;47242;48.158;-1.586;2023-05-24T12:38:08;24.30;25.10
61374;DHT22;47242;48.158;-1.586;2023-05-24T12:40:35;24.30;25.40
61374;DHT22;47242;48.158;-1.586;2023-05-24T12:43:01;24.30;25.80
61374;DHT22;47242;48.158;-1.586;2023-05-24T12:45:28;24.40;25.90
61374;DHT22;47242;48.158;-1.586;2023-05-24T12:47:54;24.30;26.20
61374;DHT22;47242;48.158;-1.586;2023-05-24T12:50:22;24.30;26.40
61374;DHT22;47242;48.158;-1.586;2023-05-24T12:52:48;24.30;27.00
61374;DHT22;47242;48.158;-1.586;2023-05-24T12:55:18;24.30;26.10
61374;DHT22;47242;48.158;-1.586;2023-05-24T12:57:45;24.30;25.90
61374;DHT22;47242;48.158;-1.586;2023-05-24T13:00:27;24.30;26.80
61374;DHT22;47242;48.158;-1.586;2023-05-24T13:02:53;24.30;27.00
61374;DHT22;47242;48.158;-1.586;2023-05-24T13:05:23;24.40;27.10
61374;DHT22;47242;48.158;-1.586;2023-05-24T13:07:50;24.40;29.40
61374;DHT22;47242;48.158;-1.586;2023-05-24T13:10:16;24.40;27.50
61374;DHT22;47242;48.158;-1.586;2023-05-24T13:12:43;24.30;26.90
61374;DHT22;47242;48.158;-1.586;2023-05-24T13:15:09;24.30;26.90
61374;DHT22;47242;48.158;-1.586;2023-05-24T13:17:35;24.30;27.20
61374;DHT22;47242;48.158;-1.586;2023-05-24T13:20:03;24.30;27.50
61374;DHT22;47242;48.158;-1.586;2023-05-24T13:22:32;24.30;27.60
61374;DHT22;47242;48.158;-1.586;2023-05-24T13:24:58;24.30;27.90
61374;DHT22;47242;48.158;-1.586;2023-05-24T13:27:23;24.30;27.70
61374;DHT22;47242;48.158;-1.586;2023-05-24T13:29:49;24.30;28.00
61374;DHT22;47242;48.158;-1.586;2023-05-24T13:32:15;24.30;27.70
61374;DHT22;47242;48.158;-1.586;2023-05-24T13:34:41;24.40;28.00
61374;DHT22;47242;48.158;-1.586;2023-05-24T13:37:06;24.40;29.60
61374;DHT22;47242;48.158;-1.586;2023-05-24T13:39:32;24.40;30.00
61374;DHT22;47242;48.158;-1.586;2023-05-24T13:42:00;24.40;28.70
61374;DHT22;47242;48.158;-1.586;2023-05-24T13:44:25;24.40;28.20
61374;DHT22;47242;48.158;-1.586;2023-05-24T13:46:51;24.40;28.20
61374;DHT22;47242;48.158;-1.586;2023-05-24T13:49:18;24.30;28.20
61374;DHT22;47242;48.158;-1.586;2023-05-24T13:51:44;24.20;29.30
61374;DHT22;47242;48.158;-1.586;2023-05-24T13:54:09;24.20;28.60
61374;DHT22;47242;48.158;-1.586;2023-05-24T13:56:36;24.30;30.40
61374;DHT22;47242;48.158;-1.586;2023-05-24T13:59:03;24.20;29.20
61374;DHT22;47242;48.158;-1.586;2023-05-24T14:01:29;24.20;29.20
61374;DHT22;47242;48.158;-1.586;2023-05-24T14:03:55;24.20;29.10
61374;DHT22;47242;48.158;-1.586;2023-05-24T14:06:21;24.30;29.30
61374;DHT22;47242;48.158;-1.586;2023-05-24T14:08:47;24.20;29.80
61374;DHT22;47242;48.158;-1.586;2023-05-24T14:11:13;24.30;29.20
61374;DHT22;47242;48.158;-1.586;2023-05-24T14:13:42;24.30;29.10
61374;DHT22;47242;48.158;-1.586;2023-05-24T14:16:08;24.30;30.40
61374;DHT22;47242;48.158;-1.586;2023-05-24T14:18:34;24.30;30.40
61374;DHT22;47242;48.158;-1.586;2023-05-24T14:21:00;24.30;30.60
61374;DHT22;47242;48.158;-1.586;2023-05-24T14:23:25;24.30;30.10
61374;DHT22;47242;48.158;-1.586;2023-05-24T14:25:51;24.30;30.10
61374;DHT22;47242;48.158;-1.586;2023-05-24T14:28:18;24.30;29.60
61374;DHT22;47242;48.158;-1.586;2023-05-24T14:30:43;24.30;29.70
61374;DHT22;47242;48.158;-1.586;2023-05-24T14:33:09;24.30;29.90
61374;DHT22;47242;48.158;-1.586;2023-05-24T14:35:36;24.30;29.90
61374;DHT22;47242;48.158;-1.586;2023-05-24T14:38:06;24.40;30.00
61374;DHT22;47242;48.158;-1.586;2023-05-24T14:40:32;24.40;30.20
61374;DHT22;47242;48.158;-1.586;2023-05-24T14:43:02;24.30;30.00
61374;DHT22;47242;48.158;-1.586;2023-05-24T14:45:28;24.30;30.40
61374;DHT22;47242;48.158;-1.586;2023-05-24T14:47:54;24.30;29.70
61374;DHT22;47242;48.158;-1.586;2023-05-24T14:50:19;24.30;30.10
61374;DHT22;47242;48.158;-1.586;2023-05-24T14:52:45;24.20;30.80
61374;DHT22;47242;48.158;-1.586;2023-05-24T14:55:11;24.20;30.90
61374;DHT22;47242;48.158;-1.586;2023-05-24T14:57:38;24.30;30.50
61374;DHT22;47242;48.158;-1.586;2023-05-24T15:00:03;24.30;30.50
61374;DHT22;47242;48.158;-1.586;2023-05-24T15:02:30;24.30;30.40
61374;DHT22;47242;48.158;-1.586;2023-05-24T15:04:55;24.30;30.60
61374;DHT22;47242;48.158;-1.586;2023-05-24T15:07:21;24.30;31.60
61374;DHT22;47242;48.158;-1.586;2023-05-24T15:09:47;24.30;30.50
61374;DHT22;47242;48.158;-1.586;2023-05-24T15:12:12;24.30;30.60
61374;DHT22;47242;48.158;-1.586;2023-05-24T15:14:38;24.30;30.90
61374;DHT22;47242;48.158;-1.586;2023-05-24T15:17:04;24.30;31.30
61374;DHT22;47242;48.158;-1.586;2023-05-24T15:19:30;24.30;31.00
61374;DHT22;47242;48.158;-1.586;2023-05-24T15:21:55;24.30;31.40
61374;DHT22;47242;48.158;-1.586;2023-05-24T15:24:21;24.30;31.90
61374;DHT22;47242;48.158;-1.586;2023-05-24T15:26:46;24.30;31.50
61374;DHT22;47242;48.158;-1.586;2023-05-24T15:29:12;24.30;32.10
61374;DHT22;47242;48.158;-1.586;2023-05-24T15:31:38;24.30;31.80
61374;DHT22;47242;48.158;-1.586;2023-05-24T15:34:04;24.30;31.90
61374;DHT22;47242;48.158;-1.586;2023-05-24T15:36:30;24.30;31.30
61374;DHT22;47242;48.158;-1.586;2023-05-24T15:38:56;24.20;31.50
61374;DHT22;47242;48.158;-1.586;2023-05-24T15:41:22;24.20;32.20
61374;DHT22;47242;48.158;-1.586;2023-05-24T15:43:51;24.20;32.10
61374;DHT22;47242;48.158;-1.586;2023-05-24T15:46:19;24.30;32.60
61374;DHT22;47242;48.158;-1.586;2023-05-24T15:48:45;24.30;32.90
61374;DHT22;47242;48.158;-1.586;2023-05-24T15:51:11;24.20;32.50
61374;DHT22;47242;48.158;-1.586;2023-05-24T15:53:37;24.20;32.50
61374;DHT22;47242;48.158;-1.586;2023-05-24T15:56:02;24.20;32.50
61374;DHT22;47242;48.158;-1.586;2023-05-24T15:58:28;24.20;32.90
61374;DHT22;47242;48.158;-1.586;2023-05-24T16:00:54;24.20;32.80
61374;DHT22;47242;48.158;-1.586;2023-05-24T16:03:19;24.10;33.10
61374;DHT22;47242;48.158;-1.586;2023-05-24T16:05:45;24.20;34.10
61374;DHT22;47242;48.158;-1.586;2023-05-24T16:08:14;24.20;33.70
61374;DHT22;47242;48.158;-1.586;2023-05-24T16:10:43;24.20;33.50
61374;DHT22;47242;48.158;-1.586;2023-05-24T16:13:10;24.10;33.50
61374;DHT22;47242;48.158;-1.586;2023-05-24T16:15:36;24.10;33.30
61374;DHT22;47242;48.158;-1.586;2023-05-24T16:18:05;24.00;33.40
61374;DHT22;47242;48.158;-1.586;2023-05-24T16:20:31;24.00;33.30
61374;DHT22;47242;48.158;-1.586;2023-05-24T16:22:57;24.00;33.60
61374;DHT22;47242;48.158;-1.586;2023-05-24T16:25:23;24.00;34.10
61374;DHT22;47242;48.158;-1.586;2023-05-24T16:27:50;24.00;35.30
61374;DHT22;47242;48.158;-1.586;2023-05-24T16:30:16;23.90;37.80
61374;DHT22;47242;48.158;-1.586;2023-05-24T16:32:41;23.90;38.70
61374;DHT22;47242;48.158;-1.586;2023-05-24T16:35:09;23.80;39.10
61374;DHT22;47242;48.158;-1.586;2023-05-24T16:37:35;23.80;39.50
61374;DHT22;47242;48.158;-1.586;2023-05-24T16:40:01;23.80;39.90
61374;DHT22;47242;48.158;-1.586;2023-05-24T16:42:26;23.80;40.60
61374;DHT22;47242;48.158;-1.586;2023-05-24T16:44:52;23.80;41.20
61374;DHT22;47242;48.158;-1.586;2023-05-24T16:47:17;23.70;41.20
61374;DHT22;47242;48.158;-1.586;2023-05-24T16:49:43;23.70;41.00
61374;DHT22;47242;48.158;-1.586;2023-05-24T16:52:09;23.60;41.10
61374;DHT22;47242;48.158;-1.586;2023-05-24T16:54:34;23.50;41.30
61374;DHT22;47242;48.158;-1.586;2023-05-24T16:57:00;23.50;41.50
61374;DHT22;47242;48.158;-1.586;2023-05-24T16:59:26;23.40;41.80
61374;DHT22;47242;48.158;-1.586;2023-05-24T17:01:51;23.40;41.20
61374;DHT22;47242;48.158;-1.586;2023-05-24T17:04:17;23.40;41.60
61374;DHT22;47242;48.158;-1.586;2023-05-24T17:06:43;23.40;41.50
61374;DHT22;47242;48.158;-1.586;2023-05-24T17:09:09;23.30;41.10
61374;DHT22;47242;48.158;-1.586;2023-05-24T17:11:35;23.20;41.30
61374;DHT22;47242;48.158;-1.586;2023-05-24T17:14:01;23.20;41.40
61374;DHT22;47242;48.158;-1.586;2023-05-24T17:16:27;23.20;42.60
61374;DHT22;47242;48.158;-1.586;2023-05-24T17:18:54;23.10;42.70
61374;DHT22;47242;48.158;-1.586;2023-05-24T17:21:20;23.00;42.80
61374;DHT22;47242;48.158;-1.586;2023-05-24T17:23:46;22.90;43.60
61374;DHT22;47242;48.158;-1.586;2023-05-24T17:26:13;22.90;43.60
61374;DHT22;47242;48.158;-1.586;2023-05-24T17:28:39;22.80;43.60
61374;DHT22;47242;48.158;-1.586;2023-05-24T17:31:06;22.80;43.50
61374;DHT22;47242;48.158;-1.586;2023-05-24T17:33:32;22.70;43.70
61374;DHT22;47242;48.158;-1.586;2023-05-24T17:35:59;22.70;44.20
61374;DHT22;47242;48.158;-1.586;2023-05-24T17:38:29;22.60;44.50
61374;DHT22;47242;48.158;-1.586;2023-05-24T17:40:57;22.60;44.20
61374;DHT22;47242;48.158;-1.586;2023-05-24T17:43:26;22.40;44.10
61374;DHT22;47242;48.158;-1.586;2023-05-24T17:45:58;22.40;44.30
61374;DHT22;47242;48.158;-1.586;2023-05-24T17:48:32;22.30;44.40
61374;DHT22;47242;48.158;-1.586;2023-05-24T17:50:58;22.30;44.40
61374;DHT22;47242;48.158;-1.586;2023-05-24T17:53:26;22.30;44.70
61374;DHT22;47242;48.158;-1.586;2023-05-24T17:55:53;22.20;44.60
61374;DHT22;47242;48.158;-1.586;2023-05-24T17:58:19;22.20;45.10
61374;DHT22;47242;48.158;-1.586;2023-05-24T18:00:47;22.10;44.80
61374;DHT22;47242;48.158;-1.586;2023-05-24T18:03:18;22.10;44.90
61374;DHT22;47242;48.158;-1.586;2023-05-24T18:05:45;22.00;45.20
61374;DHT22;47242;48.158;-1.586;2023-05-24T18:08:10;21.90;45.10
61374;DHT22;47242;48.158;-1.586;2023-05-24T18:10:36;21.80;45.30
61374;DHT22;47242;48.158;-1.586;2023-05-24T18:13:05;21.80;45.50
61374;DHT22;47242;48.158;-1.586;2023-05-24T18:15:31;21.80;45.50
61374;DHT22;47242;48.158;-1.586;2023-05-24T18:17:57;21.70;45.40
61374;DHT22;47242;48.158;-1.586;2023-05-24T18:20:22;21.70;45.80
61374;DHT22;47242;48.158;-1.586;2023-05-24T18:22:48;21.60;45.80
61374;DHT22;47242;48.158;-1.586;2023-05-24T18:25:14;21.60;45.90
61374;DHT22;47242;48.158;-1.586;2023-05-24T18:27:39;21.60;46.20
61374;DHT22;47242;48.158;-1.586;2023-05-24T18:30:06;21.50;46.30
61374;DHT22;47242;48.158;-1.586;2023-05-24T18:32:32;21.50;46.60
61374;DHT22;47242;48.158;-1.586;2023-05-24T18:34:57;21.40;46.80
61374;DHT22;47242;48.158;-1.586;2023-05-24T18:37:23;21.40;47.10
61374;DHT22;47242;48.158;-1.586;2023-05-24T18:39:49;21.30;47.30
61374;DHT22;47242;48.158;-1.586;2023-05-24T18:42:15;21.30;47.30
61374;DHT22;47242;48.158;-1.586;2023-05-24T18:44:40;21.20;47.50
61374;DHT22;47242;48.158;-1.586;2023-05-24T18:47:09;21.10;47.50
61374;DHT22;47242;48.158;-1.586;2023-05-24T18:49:35;21.00;47.80
61374;DHT22;47242;48.158;-1.586;2023-05-24T18:52:01;21.00;47.90
61374;DHT22;47242;48.158;-1.586;2023-05-24T18:54:29;20.90;47.90
61374;DHT22;47242;48.158;-1.586;2023-05-24T18:56:55;20.80;48.00
61374;DHT22;47242;48.158;-1.586;2023-05-24T18:59:21;20.80;48.10
61374;DHT22;47242;48.158;-1.586;2023-05-24T19:02:02;20.80;47.90
61374;DHT22;47242;48.158;-1.586;2023-05-24T19:04:28;20.80;48.20
61374;DHT22;47242;48.158;-1.586;2023-05-24T19:06:54;20.70;48.20
61374;DHT22;47242;48.158;-1.586;2023-05-24T19:09:20;20.70;48.20
61374;DHT22;47242;48.158;-1.586;2023-05-24T19:11:46;20.60;48.40
61374;DHT22;47242;48.158;-1.586;2023-05-24T19:14:12;20.60;48.30
61374;DHT22;47242;48.158;-1.586;2023-05-24T19:16:38;20.60;48.30
61374;DHT22;47242;48.158;-1.586;2023-05-24T19:19:04;20.50;48.50
61374;DHT22;47242;48.158;-1.586;2023-05-24T19:21:30;20.50;48.40
61374;DHT22;47242;48.158;-1.586;2023-05-24T19:23:57;20.50;48.70
61374;DHT22;47242;48.158;-1.586;2023-05-24T19:26:23;20.30;48.70
61374;DHT22;47242;48.158;-1.586;2023-05-24T19:28:48;20.30;48.90
61374;DHT22;47242;48.158;-1.586;2023-05-24T19:31:22;20.30;49.00
61374;DHT22;47242;48.158;-1.586;2023-05-24T19:33:51;20.20;49.40
61374;DHT22;47242;48.158;-1.586;2023-05-24T19:36:18;20.20;49.60
61374;DHT22;47242;48.158;-1.586;2023-05-24T19:38:46;20.10;49.70
61374;DHT22;47242;48.158;-1.586;2023-05-24T19:41:12;20.00;49.70
61374;DHT22;47242;48.158;-1.586;2023-05-24T19:43:37;20.00;50.10
61374;DHT22;47242;48.158;-1.586;2023-05-24T19:46:03;19.90;50.20
61374;DHT22;47242;48.158;-1.586;2023-05-24T19:48:32;19.90;50.60
61374;DHT22;47242;48.158;-1.586;2023-05-24T19:50:58;19.80;50.70
61374;DHT22;47242;48.158;-1.586;2023-05-24T19:53:24;19.80;51.10
61374;DHT22;47242;48.158;-1.586;2023-05-24T19:55:51;19.80;51.20